Time;durP1;ratioP1;P1;durP2;ratioP2;P2;SDS_P1;SDS_P2;PMS_P1;PMS_P2;Temp;Humidity;BMP_temperature;BMP_pressure;BME280_temperature;BME280_humidity;BME280_pressure;Samples;Min_cycle;Max_cycle;Signal;HPM_P1;HPM_P2
2020/12/24 00:00:19;;;;;;;7.87;2.28;;;;;;;;;;4347642;33;20198;-77
2020/12/24 00:02:45;;;;;;;7.80;2.17;;;;;;;;;;4347875;33;20521;-77
2020/12/24 00:05:11;;;;;;;9.02;2.53;;;;;;;;;;4348559;33;20572;-77
2020/12/24 00:07:36;;;;;;;7.20;2.40;;;;;;;;;;4347868;33;20225;-77
2020/12/24 00:10:02;;;;;;;13.70;2.95;;;;;;;;;;4347647;33;20163;-77
2020/12/24 00:12:28;;;;;;;9.68;2.65;;;;;;;;;;4361548;32;20190;-77
2020/12/24 00:14:55;;;;;;;8.60;2.33;;;;;;;;;;4347771;33;20298;-77
2020/12/24 00:17:21;;;;;;;9.38;2.60;;;;;;;;;;4361349;32;20500;-77
2020/12/24 00:19:46;;;;;;;6.90;2.17;;;;;;;;;;4361659;32;20171;-77
2020/12/24 00:22:11;;;;;;;8.10;3.12;;;;;;;;;;4361650;32;20454;-77
2020/12/24 00:24:37;;;;;;;6.37;2.20;;;;;;;;;;4348428;33;20162;-77
2020/12/24 00:27:05;;;;;;;4.57;2.05;;;;;;;;;;4347995;33;20252;-77
2020/12/24 00:29:30;;;;;;;9.52;1.98;;;;;;;;;;4348216;33;20492;-77
2020/12/24 00:31:56;;;;;;;4.30;1.65;;;;;;;;;;4347459;33;20182;-77
2020/12/24 00:34:24;;;;;;;6.45;1.90;;;;;;;;;;4347606;33;20188;-77
2020/12/24 00:36:57;;;;;;;12.02;2.87;;;;;;;;;;4347864;33;20260;-77
2020/12/24 00:39:22;;;;;;;6.93;1.87;;;;;;;;;;4346347;33;20175;-76
2020/12/24 00:41:48;;;;;;;7.40;1.62;;;;;;;;;;4346785;33;20179;-76
2020/12/24 00:44:19;;;;;;;9.25;2.28;;;;;;;;;;4344825;33;20159;-77
2020/12/24 00:46:44;;;;;;;6.70;2.08;;;;;;;;;;4345170;33;20585;-77
2020/12/24 00:49:09;;;;;;;7.28;1.92;;;;;;;;;;4352398;33;20254;-77
2020/12/24 00:51:34;;;;;;;4.30;1.50;;;;;;;;;;4347559;33;20270;-77
2020/12/24 00:53:59;;;;;;;5.03;1.80;;;;;;;;;;4347414;33;20158;-78
2020/12/24 00:56:25;;;;;;;6.47;1.62;;;;;;;;;;4347281;33;20277;-79
2020/12/24 00:58:50;;;;;;;4.90;1.85;;;;;;;;;;4360878;32;20174;-78
2020/12/24 01:01:21;;;;;;;11.15;3.00;;;;;;;;;;4347768;33;20197;-78
2020/12/24 01:03:46;;;;;;;9.40;2.72;;;;;;;;;;4360946;32;20134;-79
2020/12/24 01:06:12;;;;;;;8.35;2.12;;;;;;;;;;4347442;33;20210;-77
2020/12/24 01:08:37;;;;;;;4.97;1.67;;;;;;;;;;4347935;33;20209;-78
2020/12/24 01:11:05;;;;;;;7.00;1.80;;;;;;;;;;4346400;33;20624;-78
2020/12/24 01:13:30;;;;;;;4.85;1.25;;;;;;;;;;4347427;33;20261;-78
2020/12/24 01:15:56;;;;;;;7.47;1.60;;;;;;;;;;4347595;33;20186;-77
2020/12/24 01:18:23;;;;;;;8.68;2.08;;;;;;;;;;4346790;33;20239;-77
2020/12/24 01:20:49;;;;;;;4.10;1.08;;;;;;;;;;4346932;33;20460;-77
2020/12/24 01:23:14;;;;;;;6.65;1.77;;;;;;;;;;4347891;33;20182;-77
2020/12/24 01:25:40;;;;;;;4.62;1.60;;;;;;;;;;4346761;33;20245;-77
2020/12/24 01:28:05;;;;;;;7.78;2.30;;;;;;;;;;4346795;33;20536;-77
2020/12/24 01:30:30;;;;;;;9.15;1.25;;;;;;;;;;4346929;33;20197;-77
2020/12/24 01:32:58;;;;;;;7.97;1.83;;;;;;;;;;4346570;33;20204;-77
2020/12/24 01:35:23;;;;;;;6.55;1.60;;;;;;;;;;4361030;32;20498;-77
2020/12/24 01:37:48;;;;;;;3.87;1.30;;;;;;;;;;4346638;33;20222;-77
2020/12/24 01:40:14;;;;;;;6.37;1.20;;;;;;;;;;4346901;33;20193;-77
2020/12/24 01:42:39;;;;;;;5.47;1.25;;;;;;;;;;4346629;33;20198;-78
2020/12/24 01:45:04;;;;;;;7.03;1.80;;;;;;;;;;4346576;33;20226;-78
2020/12/24 01:47:33;;;;;;;6.15;1.42;;;;;;;;;;4346630;33;20194;-77
2020/12/24 01:49:58;;;;;;;3.97;1.30;;;;;;;;;;4360775;32;20158;-77
2020/12/24 01:52:26;;;;;;;4.70;1.20;;;;;;;;;;4346466;33;20622;-77
2020/12/24 01:55:00;;;;;;;8.38;1.80;;;;;;;;;;4346431;33;20278;-77
2020/12/24 01:57:26;;;;;;;6.25;1.55;;;;;;;;;;4341092;33;20166;-78
2020/12/24 01:59:59;;;;;;;5.95;1.65;;;;;;;;;;4347021;33;20236;-77
2020/12/24 02:02:24;;;;;;;9.65;2.05;;;;;;;;;;4346853;33;20585;-78
2020/12/24 02:04:49;;;;;;;6.30;1.55;;;;;;;;;;4360209;32;20194;-77
2020/12/24 02:07:15;;;;;;;7.28;1.33;;;;;;;;;;4346196;33;20187;-77
2020/12/24 02:09:43;;;;;;;8.32;1.73;;;;;;;;;;4347019;33;20222;-76
2020/12/24 02:12:08;;;;;;;6.40;1.70;;;;;;;;;;4346099;33;20165;-77
2020/12/24 02:14:34;;;;;;;7.50;1.85;;;;;;;;;;4360864;32;20136;-77
2020/12/24 02:16:59;;;;;;;6.78;1.48;;;;;;;;;;4346198;33;20206;-77
2020/12/24 02:19:24;;;;;;;11.20;2.25;;;;;;;;;;4359481;32;20213;-77
2020/12/24 02:21:52;;;;;;;6.32;1.60;;;;;;;;;;4346394;32;20170;-77
2020/12/24 02:24:18;;;;;;;10.32;1.70;;;;;;;;;;4361013;32;20541;-77
2020/12/24 02:26:43;;;;;;;7.32;1.70;;;;;;;;;;4346421;33;20254;-77
2020/12/24 02:29:14;;;;;;;4.32;1.23;;;;;;;;;;4331287;33;20233;-77
2020/12/24 02:31:39;;;;;;;8.95;1.30;;;;;;;;;;4345001;33;20584;-77
2020/12/24 02:34:04;;;;;;;5.20;1.37;;;;;;;;;;4331507;33;20202;-77
2020/12/24 02:36:30;;;;;;;11.90;1.85;;;;;;;;;;4331339;33;20198;-77
2020/12/24 02:38:55;;;;;;;6.20;1.58;;;;;;;;;;4331117;33;20658;-77
2020/12/24 02:41:26;;;;;;;6.72;1.45;;;;;;;;;;4331753;33;20593;-77
2020/12/24 02:44:01;;;;;;;4.47;1.42;;;;;;;;;;4331451;33;20219;-77
2020/12/24 02:46:26;;;;;;;4.75;1.20;;;;;;;;;;4331993;33;20171;-78
2020/12/24 02:48:51;;;;;;;9.43;1.62;;;;;;;;;;4331376;33;20163;-77
2020/12/24 02:51:19;;;;;;;7.03;1.30;;;;;;;;;;4331085;33;20175;-77
2020/12/24 02:53:44;;;;;;;9.07;1.40;;;;;;;;;;4345422;33;20151;-76
2020/12/24 02:56:10;;;;;;;9.02;1.27;;;;;;;;;;4331245;33;20206;-77
2020/12/24 02:58:35;;;;;;;6.70;1.50;;;;;;;;;;4331487;33;20179;-77
2020/12/24 03:01:00;;;;;;;5.55;1.25;;;;;;;;;;4331580;33;20197;-77
2020/12/24 03:03:26;;;;;;;4.25;1.40;;;;;;;;;;4331117;33;20175;-77
2020/12/24 03:05:52;;;;;;;4.53;1.35;;;;;;;;;;4331025;33;20628;-77
2020/12/24 03:08:17;;;;;;;5.12;1.50;;;;;;;;;;4331342;33;20229;-77
2020/12/24 03:10:43;;;;;;;5.60;1.40;;;;;;;;;;4331126;33;20159;-78
2020/12/24 03:13:08;;;;;;;6.75;1.70;;;;;;;;;;4344400;33;20174;-78
2020/12/24 03:15:33;;;;;;;7.78;1.42;;;;;;;;;;4331366;33;20234;-78
2020/12/24 03:17:59;;;;;;;10.73;1.75;;;;;;;;;;4331264;33;20163;-77
2020/12/24 03:20:24;;;;;;;4.80;1.50;;;;;;;;;;4331156;33;20162;-78
2020/12/24 03:22:49;;;;;;;9.77;1.65;;;;;;;;;;4331116;33;20214;-77
2020/12/24 03:25:15;;;;;;;5.37;1.42;;;;;;;;;;4330968;33;20168;-78
2020/12/24 03:27:40;;;;;;;5.20;1.42;;;;;;;;;;4336327;33;20213;-78
2020/12/24 03:30:09;;;;;;;3.55;1.52;;;;;;;;;;4345730;33;20205;-77
2020/12/24 03:32:34;;;;;;;8.75;1.48;;;;;;;;;;4345590;33;20159;-77
2020/12/24 03:35:00;;;;;;;7.55;1.52;;;;;;;;;;4360537;32;20562;-77
2020/12/24 03:37:25;;;;;;;7.72;1.58;;;;;;;;;;4347808;33;20166;-77
2020/12/24 03:39:50;;;;;;;7.28;1.20;;;;;;;;;;4348179;33;20232;-77
2020/12/24 03:42:16;;;;;;;8.05;1.87;;;;;;;;;;4348862;33;20166;-77
2020/12/24 03:44:41;;;;;;;8.13;1.60;;;;;;;;;;4362708;32;20213;-78
2020/12/24 03:47:09;;;;;;;8.43;1.48;;;;;;;;;;4348687;33;20171;-76
2020/12/24 03:49:34;;;;;;;4.75;1.30;;;;;;;;;;4349402;33;20159;-77
2020/12/24 03:52:00;;;;;;;3.62;1.48;;;;;;;;;;4348039;33;20524;-76
2020/12/24 03:54:25;;;;;;;3.33;1.27;;;;;;;;;;4348187;33;20197;-76
2020/12/24 03:56:53;;;;;;;2.95;1.23;;;;;;;;;;4361874;32;20151;-77
2020/12/24 03:59:18;;;;;;;1.67;0.53;;;;;;;;;;4347861;33;20580;-76
2020/12/24 04:01:43;;;;;;;1.77;0.50;;;;;;;;;;4347800;33;20163;-77
2020/12/24 04:04:08;;;;;;;1.47;0.67;;;;;;;;;;4347696;33;20630;-76
2020/12/24 04:06:33;;;;;;;2.63;0.53;;;;;;;;;;4348066;33;20220;-75
2020/12/24 04:08:59;;;;;;;2.93;0.97;;;;;;;;;;4361287;33;20310;-76
2020/12/24 04:11:24;;;;;;;1.30;0.70;;;;;;;;;;4348076;33;20264;-75
2020/12/24 04:13:49;;;;;;;1.53;0.70;;;;;;;;;;4347635;33;20571;-76
2020/12/24 04:16:17;;;;;;;1.10;0.70;;;;;;;;;;4347523;33;20229;-74
2020/12/24 04:18:42;;;;;;;1.83;0.70;;;;;;;;;;4347585;33;20597;-76
2020/12/24 04:21:07;;;;;;;1.97;0.90;;;;;;;;;;4361323;32;20186;-75
2020/12/24 04:23:33;;;;;;;2.10;1.00;;;;;;;;;;4361014;32;20501;-75
2020/12/24 04:25:58;;;;;;;2.00;0.80;;;;;;;;;;4347906;33;20189;-75
2020/12/24 04:28:23;;;;;;;2.97;0.70;;;;;;;;;;4347768;33;20175;-76
2020/12/24 04:30:48;;;;;;;1.63;0.60;;;;;;;;;;4361679;32;20148;-77
2020/12/24 04:33:14;;;;;;;1.57;0.53;;;;;;;;;;4348197;33;20600;-75
2020/12/24 04:35:39;;;;;;;2.30;0.60;;;;;;;;;;4361548;32;20704;-76
2020/12/24 04:38:05;;;;;;;0.70;0.40;;;;;;;;;;4348027;33;20171;-76
2020/12/24 04:40:30;;;;;;;1.10;0.50;;;;;;;;;;4348714;33;20206;-75
2020/12/24 04:42:55;;;;;;;0.40;0.40;;;;;;;;;;4362425;32;20475;-76
2020/12/24 04:45:22;;;;;;;1.23;0.60;;;;;;;;;;4348712;32;20575;-76
2020/12/24 04:47:47;;;;;;;1.03;0.40;;;;;;;;;;4361284;33;20177;-75
2020/12/24 04:50:13;;;;;;;1.37;0.50;;;;;;;;;;4361410;32;20456;-75
2020/12/24 04:52:38;;;;;;;1.07;0.50;;;;;;;;;;4344316;33;20179;-73
2020/12/24 04:55:04;;;;;;;3.78;0.60;;;;;;;;;;4353274;33;20623;-75
2020/12/24 04:57:30;;;;;;;1.90;0.50;;;;;;;;;;4341825;33;20309;-76
2020/12/24 04:59:56;;;;;;;0.60;0.30;;;;;;;;;;4346880;33;20190;-74
2020/12/24 05:02:21;;;;;;;1.77;0.50;;;;;;;;;;4360263;32;20131;-80
2020/12/24 05:04:46;;;;;;;2.80;0.60;;;;;;;;;;4347522;33;20159;-75
2020/12/24 05:07:11;;;;;;;1.07;0.50;;;;;;;;;;4360437;32;20143;-77
2020/12/24 05:09:36;;;;;;;2.73;0.67;;;;;;;;;;4346817;33;20232;-76
2020/12/24 05:12:02;;;;;;;1.27;0.40;;;;;;;;;;4360668;33;20583;-73
2020/12/24 05:14:28;;;;;;;1.40;0.50;;;;;;;;;;4347271;33;20168;-75
2020/12/24 05:17:00;;;;;;;0.33;0.33;;;;;;;;;;4361108;32;20621;-74
2020/12/24 05:19:26;;;;;;;0.63;0.50;;;;;;;;;;4360948;32;20147;-76
2020/12/24 05:21:52;;;;;;;2.17;0.50;;;;;;;;;;4361347;32;20132;-76
2020/12/24 05:24:25;;;;;;;0.73;0.50;;;;;;;;;;4360332;32;20822;-76
2020/12/24 05:26:51;;;;;;;0.63;0.37;;;;;;;;;;4346369;33;20194;-73
2020/12/24 05:29:16;;;;;;;0.40;0.40;;;;;;;;;;4360289;32;20130;-74
2020/12/24 05:31:41;;;;;;;1.07;0.50;;;;;;;;;;4360148;33;20158;-74
2020/12/24 05:34:06;;;;;;;0.60;0.50;;;;;;;;;;4360745;32;20155;-75
2020/12/24 05:36:32;;;;;;;1.03;0.47;;;;;;;;;;4346131;33;20171;-73
2020/12/24 05:38:57;;;;;;;0.60;0.40;;;;;;;;;;4361008;32;20197;-73
2020/12/24 05:41:33;;;;;;;0.90;0.43;;;;;;;;;;4346184;33;20291;-76
2020/12/24 05:43:59;;;;;;;0.40;0.40;;;;;;;;;;4360888;32;20228;-73
2020/12/24 05:46:26;;;;;;;0.60;0.40;;;;;;;;;;4359832;32;20151;-74
2020/12/24 05:48:51;;;;;;;0.63;0.60;;;;;;;;;;4359446;32;20173;-76
2020/12/24 05:51:18;;;;;;;0.57;0.40;;;;;;;;;;4343425;33;20171;-75
2020/12/24 05:53:43;;;;;;;1.43;0.40;;;;;;;;;;4356274;32;20143;-73
2020/12/24 05:56:17;;;;;;;0.97;0.50;;;;;;;;;;4359452;33;20143;-76
2020/12/24 05:58:45;;;;;;;0.77;0.50;;;;;;;;;;4360118;32;20218;-72
2020/12/24 06:01:12;;;;;;;0.83;0.50;;;;;;;;;;4345820;33;20431;-76
2020/12/24 06:03:48;;;;;;;0.90;0.50;;;;;;;;;;4359849;32;20158;-75
2020/12/24 06:06:17;;;;;;;1.70;0.47;;;;;;;;;;4359899;32;20138;-77
2020/12/24 06:08:46;;;;;;;1.77;0.40;;;;;;;;;;4345525;33;20678;-75
2020/12/24 06:11:11;;;;;;;1.90;0.57;;;;;;;;;;4360809;32;20147;-75
2020/12/24 06:13:40;;;;;;;1.93;0.80;;;;;;;;;;4360529;32;20166;-73
2020/12/24 06:16:07;;;;;;;0.47;0.40;;;;;;;;;;4360803;32;20139;-74
2020/12/24 06:18:33;;;;;;;0.73;0.57;;;;;;;;;;4360723;32;20163;-71
2020/12/24 06:21:00;;;;;;;1.03;0.50;;;;;;;;;;4360120;32;20231;-76
2020/12/24 06:23:26;;;;;;;1.23;0.40;;;;;;;;;;4360594;32;20158;-74
2020/12/24 06:25:53;;;;;;;1.13;0.40;;;;;;;;;;4345920;33;20175;-75
2020/12/24 06:28:19;;;;;;;0.70;0.60;;;;;;;;;;4359012;32;20249;-75
2020/12/24 06:30:44;;;;;;;1.30;0.50;;;;;;;;;;4345678;33;20254;-75
2020/12/24 06:33:09;;;;;;;0.70;0.50;;;;;;;;;;4345915;33;20509;-76
2020/12/24 06:35:38;;;;;;;1.70;0.60;;;;;;;;;;4359107;33;20170;-73
2020/12/24 06:38:04;;;;;;;0.60;0.40;;;;;;;;;;4360351;33;20151;-77
2020/12/24 06:40:33;;;;;;;0.80;0.70;;;;;;;;;;4345665;33;20186;-72
2020/12/24 06:42:59;;;;;;;3.30;0.60;;;;;;;;;;4345372;33;20179;-72
2020/12/24 06:45:27;;;;;;;1.90;0.50;;;;;;;;;;4345543;33;20163;-76
2020/12/24 06:48:16;;;;;;;0.60;0.60;;;;;;;;;;4359632;33;20165;-76
2020/12/24 06:50:42;;;;;;;1.73;0.60;;;;;;;;;;4359828;33;20139;-75
2020/12/24 06:53:20;;;;;;;1.30;0.70;;;;;;;;;;4346008;33;20167;-76
2020/12/24 06:56:05;;;;;;;1.17;0.70;;;;;;;;;;4359376;33;20150;-73
2020/12/24 06:58:37;;;;;;;1.93;0.80;;;;;;;;;;4349663;33;20232;-76
2020/12/24 07:01:02;;;;;;;0.77;0.63;;;;;;;;;;4364242;33;20200;-75
2020/12/24 07:03:27;;;;;;;0.87;0.60;;;;;;;;;;4346215;33;20609;-74
2020/12/24 07:05:52;;;;;;;1.10;0.80;;;;;;;;;;4346218;33;20230;-75
2020/12/24 07:08:33;;;;;;;2.20;0.70;;;;;;;;;;4359001;32;20510;-76
2020/12/24 07:10:59;;;;;;;1.17;0.80;;;;;;;;;;4350029;33;20267;-76
2020/12/24 07:13:36;;;;;;;4.60;1.30;;;;;;;;;;4360626;33;20462;-73
2020/12/24 07:16:02;;;;;;;2.57;1.80;;;;;;;;;;4361975;32;20572;-74
2020/12/24 07:18:29;;;;;;;2.73;2.00;;;;;;;;;;4348333;33;20190;-77
2020/12/24 07:20:57;;;;;;;5.30;3.10;;;;;;;;;;4348525;33;20251;-75
2020/12/24 07:23:30;;;;;;;5.83;3.37;;;;;;;;;;4348519;33;20596;-75
2020/12/24 07:25:56;;;;;;;7.53;4.43;;;;;;;;;;4348413;33;20193;-73
2020/12/24 07:28:22;;;;;;;7.70;4.07;;;;;;;;;;4347987;33;20179;-73
2020/12/24 07:30:57;;;;;;;6.97;4.13;;;;;;;;;;4348008;33;20167;-76
2020/12/24 07:33:22;;;;;;;6.63;3.97;;;;;;;;;;4349109;33;20263;-74
2020/12/24 07:35:48;;;;;;;7.87;4.80;;;;;;;;;;4344002;33;20232;-76
2020/12/24 07:38:13;;;;;;;10.73;3.80;;;;;;;;;;4357134;32;20182;-73
2020/12/24 07:40:40;;;;;;;5.43;3.50;;;;;;;;;;4345282;33;20229;-72
2020/12/24 07:43:11;;;;;;;6.07;3.20;;;;;;;;;;4361613;32;20187;-73
2020/12/24 07:45:37;;;;;;;5.93;3.63;;;;;;;;;;4361612;32;20190;-77
2020/12/24 07:48:09;;;;;;;6.33;3.57;;;;;;;;;;4348055;33;20229;-76
2020/12/24 07:50:34;;;;;;;7.37;3.20;;;;;;;;;;4361543;32;20182;-76
2020/12/24 07:52:59;;;;;;;5.37;2.90;;;;;;;;;;4349789;32;20213;-76
2020/12/24 07:55:25;;;;;;;5.50;2.63;;;;;;;;;;4376476;32;20162;-75
2020/12/24 07:57:50;;;;;;;4.63;2.23;;;;;;;;;;4370261;32;20174;-76
2020/12/24 08:00:17;;;;;;;4.27;2.43;;;;;;;;;;4361124;33;20139;-76
2020/12/24 08:02:42;;;;;;;3.77;2.30;;;;;;;;;;4348243;33;20285;-77
2020/12/24 08:05:08;;;;;;;5.37;2.27;;;;;;;;;;4361106;32;20147;-77
2020/12/24 08:07:33;;;;;;;6.07;2.30;;;;;;;;;;4359784;32;20189;-75
2020/12/24 08:10:11;;;;;;;6.73;2.43;;;;;;;;;;4348256;33;20175;-75
2020/12/24 08:12:36;;;;;;;2.67;1.60;;;;;;;;;;4348065;33;20197;-76
2020/12/24 08:15:12;;;;;;;5.17;1.77;;;;;;;;;;4349053;32;20194;-76
2020/12/24 08:17:40;;;;;;;2.50;1.63;;;;;;;;;;4347499;33;20202;-78
2020/12/24 08:20:07;;;;;;;4.23;1.50;;;;;;;;;;4346840;32;20183;-77
2020/12/24 08:22:36;;;;;;;2.17;1.43;;;;;;;;;;4346993;33;20240;-77
2020/12/24 08:25:02;;;;;;;2.77;1.50;;;;;;;;;;4369315;32;20151;-79
2020/12/24 08:27:28;;;;;;;2.97;1.33;;;;;;;;;;4362017;32;20191;-77
2020/12/24 08:29:53;;;;;;;5.47;1.60;;;;;;;;;;4362382;32;20618;-76
2020/12/24 08:32:19;;;;;;;3.23;1.60;;;;;;;;;;4362081;32;20208;-79
2020/12/24 08:34:44;;;;;;;2.17;1.20;;;;;;;;;;4361965;32;20462;-78
2020/12/24 08:37:09;;;;;;;2.70;1.30;;;;;;;;;;4360555;32;20214;-77
2020/12/24 08:39:35;;;;;;;5.83;1.50;;;;;;;;;;4347360;33;20225;-77
2020/12/24 08:42:03;;;;;;;2.77;1.30;;;;;;;;;;4361052;32;20200;-76
2020/12/24 08:44:28;;;;;;;1.93;1.10;;;;;;;;;;4346862;33;20205;-77
2020/12/24 08:47:04;;;;;;;4.43;1.50;;;;;;;;;;4361138;32;20139;-78
2020/12/24 08:49:29;;;;;;;2.83;1.33;;;;;;;;;;4347287;33;20178;-76
2020/12/24 08:52:14;;;;;;;2.30;1.40;;;;;;;;;;4347251;33;20217;-77
2020/12/24 08:54:56;;;;;;;4.23;1.50;;;;;;;;;;4346846;33;20501;-79
2020/12/24 08:57:21;;;;;;;2.90;1.10;;;;;;;;;;4360978;32;20147;-76
2020/12/24 08:59:52;;;;;;;2.87;1.30;;;;;;;;;;4361635;32;20178;-76
2020/12/24 09:02:24;;;;;;;4.63;1.20;;;;;;;;;;4360669;32;20475;-78
2020/12/24 09:04:54;;;;;;;5.70;1.30;;;;;;;;;;4332219;33;20326;-77
2020/12/24 09:07:31;;;;;;;4.20;1.23;;;;;;;;;;4332901;33;20167;-78
2020/12/24 09:10:06;;;;;;;4.47;1.30;;;;;;;;;;4332143;33;20182;-77
2020/12/24 09:12:32;;;;;;;1.73;1.00;;;;;;;;;;4346306;33;20544;-78
2020/12/24 09:14:58;;;;;;;2.07;1.20;;;;;;;;;;4332092;33;20159;-78
2020/12/24 09:17:23;;;;;;;3.13;1.10;;;;;;;;;;4345948;33;20140;-76
2020/12/24 09:19:59;;;;;;;4.87;1.43;;;;;;;;;;4347070;33;20222;-77
2020/12/24 09:22:24;;;;;;;3.13;1.03;;;;;;;;;;4347207;33;20173;-76
2020/12/24 09:24:49;;;;;;;3.87;1.10;;;;;;;;;;4346496;33;20668;-76
2020/12/24 09:27:15;;;;;;;4.33;0.93;;;;;;;;;;4359651;33;20234;-76
2020/12/24 09:29:40;;;;;;;3.70;1.00;;;;;;;;;;4358869;32;20503;-77
2020/12/24 09:32:05;;;;;;;5.83;0.80;;;;;;;;;;4346528;33;20241;-77
2020/12/24 09:34:30;;;;;;;3.23;0.67;;;;;;;;;;4346723;33;20576;-77
2020/12/24 09:36:56;;;;;;;3.60;0.90;;;;;;;;;;4344558;33;20180;-77
2020/12/24 09:39:21;;;;;;;4.37;1.00;;;;;;;;;;4356706;32;20181;-78
2020/12/24 09:41:47;;;;;;;5.27;1.00;;;;;;;;;;4345790;33;20171;-77
2020/12/24 09:44:13;;;;;;;2.73;0.93;;;;;;;;;;4345229;33;20442;-77
2020/12/24 09:46:39;;;;;;;6.20;1.50;;;;;;;;;;4345927;33;20171;-78
2020/12/24 09:49:04;;;;;;;4.77;1.10;;;;;;;;;;4346482;33;20170;-77
2020/12/24 09:51:37;;;;;;;5.63;1.00;;;;;;;;;;4358845;32;20198;-77
2020/12/24 09:54:03;;;;;;;6.47;1.10;;;;;;;;;;4359357;32;20229;-78
2020/12/24 09:56:29;;;;;;;5.03;0.90;;;;;;;;;;4358368;32;20163;-77
2020/12/24 09:58:54;;;;;;;3.37;0.70;;;;;;;;;;4345652;33;20170;-80
2020/12/24 10:01:19;;;;;;;6.53;1.70;;;;;;;;;;4346287;33;20210;-77
2020/12/24 10:03:45;;;;;;;8.80;1.20;;;;;;;;;;4347011;33;20219;-77
2020/12/24 10:06:11;;;;;;;5.33;1.00;;;;;;;;;;4359636;32;20182;-77
2020/12/24 10:08:36;;;;;;;9.27;1.20;;;;;;;;;;4348229;33;20530;-75
2020/12/24 10:11:01;;;;;;;6.53;1.47;;;;;;;;;;4360728;32;20134;-78
2020/12/24 10:13:26;;;;;;;8.40;1.80;;;;;;;;;;4346798;33;20467;-77
2020/12/24 10:15:52;;;;;;;8.77;1.23;;;;;;;;;;4346255;33;20175;-77
2020/12/24 10:18:20;;;;;;;5.33;1.20;;;;;;;;;;4346265;33;20171;-79
2020/12/24 10:20:45;;;;;;;4.97;1.20;;;;;;;;;;4346293;33;20230;-78
2020/12/24 10:23:10;;;;;;;9.97;1.80;;;;;;;;;;4359445;32;20143;-78
2020/12/24 10:25:37;;;;;;;9.57;1.60;;;;;;;;;;4346527;33;20194;-77
2020/12/24 10:28:02;;;;;;;8.07;1.37;;;;;;;;;;4345640;33;20229;-78
2020/12/24 10:30:28;;;;;;;5.43;1.57;;;;;;;;;;4344982;33;20167;-77
2020/12/24 10:32:53;;;;;;;7.50;1.47;;;;;;;;;;4354241;33;20241;-77
2020/12/24 10:35:18;;;;;;;14.70;2.10;;;;;;;;;;4346316;33;20179;-78
2020/12/24 10:37:44;;;;;;;9.63;1.40;;;;;;;;;;4360210;33;20519;-77
2020/12/24 10:40:09;;;;;;;8.27;1.80;;;;;;;;;;4359424;33;20147;-77
2020/12/24 10:42:36;;;;;;;7.50;1.50;;;;;;;;;;4345813;33;20170;-78
2020/12/24 10:45:01;;;;;;;10.10;1.73;;;;;;;;;;4347615;33;20162;-78
2020/12/24 10:47:27;;;;;;;8.43;1.17;;;;;;;;;;4348793;33;20158;-78
2020/12/24 10:49:52;;;;;;;9.57;1.50;;;;;;;;;;4348479;33;20592;-77
2020/12/24 10:52:17;;;;;;;12.80;1.80;;;;;;;;;;4347096;33;20175;-76
2020/12/24 10:54:42;;;;;;;11.37;1.57;;;;;;;;;;4333474;33;20171;-77
2020/12/24 10:57:07;;;;;;;9.47;1.60;;;;;;;;;;4347714;33;20205;-75
2020/12/24 10:59:33;;;;;;;5.87;1.47;;;;;;;;;;4347664;33;20529;-76
2020/12/24 11:01:58;;;;;;;11.07;1.43;;;;;;;;;;4334087;33;20278;-77
2020/12/24 11:04:23;;;;;;;10.30;1.33;;;;;;;;;;4347754;33;20202;-77
2020/12/24 11:06:48;;;;;;;8.50;1.20;;;;;;;;;;4333711;33;20186;-77
2020/12/24 11:09:14;;;;;;;6.17;1.30;;;;;;;;;;4334327;33;20179;-77
2020/12/24 11:11:40;;;;;;;7.35;1.45;;;;;;;;;;4347167;33;20479;-78
2020/12/24 11:14:05;;;;;;;8.95;1.42;;;;;;;;;;4334074;33;20592;-77
2020/12/24 11:16:30;;;;;;;8.00;1.30;;;;;;;;;;4333803;33;20198;-76
2020/12/24 11:18:56;;;;;;;5.05;1.20;;;;;;;;;;4334179;33;20185;-77
2020/12/24 11:21:21;;;;;;;12.80;1.97;;;;;;;;;;4334427;33;20521;-76
2020/12/24 11:23:47;;;;;;;6.72;1.60;;;;;;;;;;4334365;33;20660;-76
2020/12/24 11:26:19;;;;;;;9.50;1.55;;;;;;;;;;4348959;33;20159;-77
2020/12/24 11:28:44;;;;;;;6.27;1.80;;;;;;;;;;4348140;33;20258;-76
2020/12/24 11:31:09;;;;;;;11.55;1.40;;;;;;;;;;4348342;33;20210;-77
2020/12/24 11:33:35;;;;;;;9.90;1.37;;;;;;;;;;4348295;33;20163;-77
2020/12/24 11:36:00;;;;;;;6.45;1.37;;;;;;;;;;4362453;32;20166;-77
2020/12/24 11:38:25;;;;;;;8.82;1.85;;;;;;;;;;4348097;33;20167;-77
2020/12/24 11:40:50;;;;;;;11.82;1.73;;;;;;;;;;4348485;33;20260;-77
2020/12/24 11:43:16;;;;;;;7.07;1.30;;;;;;;;;;4361515;32;20131;-77
2020/12/24 11:45:41;;;;;;;11.15;1.23;;;;;;;;;;4361596;32;20135;-78
2020/12/24 11:48:06;;;;;;;10.70;1.48;;;;;;;;;;4347973;33;20170;-77
2020/12/24 11:50:31;;;;;;;11.05;1.80;;;;;;;;;;4347972;33;20171;-77
2020/12/24 11:52:57;;;;;;;5.80;1.30;;;;;;;;;;4347924;33;20171;-77
2020/12/24 11:55:25;;;;;;;7.53;1.30;;;;;;;;;;4347797;33;20175;-77
2020/12/24 11:57:50;;;;;;;10.18;1.40;;;;;;;;;;4347747;33;20206;-76
2020/12/24 12:00:17;;;;;;;10.50;1.80;;;;;;;;;;4361269;33;20146;-78
2020/12/24 12:02:42;;;;;;;10.60;1.93;;;;;;;;;;4348398;33;20163;-77
2020/12/24 12:05:07;;;;;;;8.70;1.70;;;;;;;;;;4347747;33;20167;-76
2020/12/24 12:07:36;;;;;;;8.60;1.90;;;;;;;;;;4348282;33;20181;-78
2020/12/24 12:10:01;;;;;;;9.48;1.05;;;;;;;;;;4347941;33;20222;-78
2020/12/24 12:12:26;;;;;;;10.10;1.40;;;;;;;;;;4347527;33;20230;-77
2020/12/24 12:14:51;;;;;;;8.93;1.70;;;;;;;;;;4348636;33;20634;-77
2020/12/24 12:17:22;;;;;;;7.90;1.53;;;;;;;;;;4347693;33;20263;-77
2020/12/24 12:19:47;;;;;;;6.77;1.00;;;;;;;;;;4362219;32;20147;-77
2020/12/24 12:22:15;;;;;;;9.17;1.33;;;;;;;;;;4347384;33;20201;-77
2020/12/24 12:24:41;;;;;;;11.60;1.30;;;;;;;;;;4348199;33;20201;-77
2020/12/24 12:27:10;;;;;;;8.30;1.50;;;;;;;;;;4335448;33;20162;-82
2020/12/24 12:29:38;;;;;;;6.07;1.45;;;;;;;;;;4336288;33;20171;-80
2020/12/24 12:32:04;;;;;;;6.28;1.00;;;;;;;;;;4347793;33;20584;-82
2020/12/24 12:34:29;;;;;;;6.32;1.30;;;;;;;;;;4361225;32;20139;-80
2020/12/24 12:37:06;;;;;;;6.03;1.73;;;;;;;;;;4347778;33;20159;-82
2020/12/24 12:39:37;;;;;;;6.18;1.10;;;;;;;;;;4347309;33;20194;-82
2020/12/24 12:42:04;;;;;;;7.32;1.30;;;;;;;;;;4360858;32;20202;-83
2020/12/24 12:44:48;;;;;;;;;;;;;;;;;;;;;
2020/12/24 12:47:33;;;;;;;3.05;0.90;;;;;;;;;;4361254;33;20158;-83
2020/12/24 12:50:01;;;;;;;3.53;0.90;;;;;;;;;;4361294;32;20300;-81
2020/12/24 12:52:35;;;;;;;4.43;1.00;;;;;;;;;;4361008;32;20502;-83
2020/12/24 12:55:01;;;;;;;4.15;1.10;;;;;;;;;;4347441;33;20182;-83
2020/12/24 12:57:46;;;;;;;4.45;0.70;;;;;;;;;;4360954;32;20162;-82
2020/12/24 13:00:21;;;;;;;4.70;0.83;;;;;;;;;;4347049;33;20155;-82
2020/12/24 13:02:47;;;;;;;2.35;1.00;;;;;;;;;;4335459;33;20189;-82
2020/12/24 13:05:12;;;;;;;3.40;0.80;;;;;;;;;;4347139;33;20234;-81
2020/12/24 13:07:37;;;;;;;4.07;1.00;;;;;;;;;;4346558;33;20171;-81
2020/12/24 13:10:07;;;;;;;4.07;1.00;;;;;;;;;;4347890;33;20138;-81
2020/12/24 13:12:32;;;;;;;6.87;1.30;;;;;;;;;;4346892;33;20237;-81
2020/12/24 13:14:58;;;;;;;6.65;1.20;;;;;;;;;;4347495;33;20159;-81
2020/12/24 13:17:29;;;;;;;5.93;1.42;;;;;;;;;;4348196;33;20178;-78
2020/12/24 13:19:54;;;;;;;6.97;1.37;;;;;;;;;;4349934;33;20150;-78
2020/12/24 13:22:20;;;;;;;12.13;1.80;;;;;;;;;;4349912;33;20155;-78
2020/12/24 13:24:45;;;;;;;6.95;1.17;;;;;;;;;;4350531;33;20489;-77
2020/12/24 13:27:11;;;;;;;6.60;1.30;;;;;;;;;;4362698;32;20209;-79
2020/12/24 13:29:36;;;;;;;5.18;1.12;;;;;;;;;;4347231;33;20468;-78
2020/12/24 13:32:02;;;;;;;6.35;1.12;;;;;;;;;;4346839;32;20498;-78
2020/12/24 13:34:27;;;;;;;5.12;1.30;;;;;;;;;;4346745;33;20459;-78
2020/12/24 13:36:55;;;;;;;6.50;1.00;;;;;;;;;;4347060;33;20452;-78
2020/12/24 13:39:25;;;;;;;9.30;1.33;;;;;;;;;;4346358;33;20198;-78
2020/12/24 13:41:53;;;;;;;8.80;1.47;;;;;;;;;;4346359;33;20715;-78
2020/12/24 13:44:19;;;;;;;11.30;1.27;;;;;;;;;;4360213;32;20123;-78
2020/12/24 13:46:50;;;;;;;8.20;1.13;;;;;;;;;;4346373;33;20178;-79
2020/12/24 13:49:16;;;;;;;12.83;1.50;;;;;;;;;;4346618;33;20659;-80
2020/12/24 13:52:04;;;;;;;6.57;1.27;;;;;;;;;;4346296;33;20167;-79
2020/12/24 13:54:30;;;;;;;8.77;1.60;;;;;;;;;;4352203;33;20179;-79
2020/12/24 13:56:58;;;;;;;9.37;1.60;;;;;;;;;;4358714;32;20131;-78
2020/12/24 13:59:23;;;;;;;8.50;1.50;;;;;;;;;;4354032;33;20171;-79
2020/12/24 14:01:52;;;;;;;5.20;1.10;;;;;;;;;;4357684;32;20497;-78
2020/12/24 14:04:18;;;;;;;10.43;1.80;;;;;;;;;;4344994;33;20207;-78
2020/12/24 14:06:44;;;;;;;12.40;1.97;;;;;;;;;;4346228;33;20250;-78
2020/12/24 14:09:09;;;;;;;6.53;1.40;;;;;;;;;;4346051;33;20297;-79
2020/12/24 14:11:34;;;;;;;10.03;1.63;;;;;;;;;;4359661;32;20206;-75
2020/12/24 14:14:00;;;;;;;8.93;1.40;;;;;;;;;;4346403;33;20186;-76
2020/12/24 14:16:25;;;;;;;5.83;1.17;;;;;;;;;;4359249;32;20178;-75
2020/12/24 14:18:50;;;;;;;12.17;1.50;;;;;;;;;;4358560;32;20214;-77
2020/12/24 14:21:18;;;;;;;10.40;1.47;;;;;;;;;;4359044;33;20131;-75
2020/12/24 14:23:43;;;;;;;8.53;1.20;;;;;;;;;;4345168;33;20297;-75
2020/12/24 14:26:08;;;;;;;8.70;1.50;;;;;;;;;;4345618;33;20155;-76
2020/12/24 14:28:33;;;;;;;6.07;1.30;;;;;;;;;;4359638;32;20170;-77
2020/12/24 14:30:59;;;;;;;5.37;1.70;;;;;;;;;;4345826;33;20182;-78
2020/12/24 14:33:24;;;;;;;9.10;1.40;;;;;;;;;;4345563;33;20484;-75
2020/12/24 14:35:49;;;;;;;11.37;1.70;;;;;;;;;;4345554;33;20198;-75
2020/12/24 14:38:14;;;;;;;9.37;1.27;;;;;;;;;;4345635;33;20217;-76
2020/12/24 14:40:39;;;;;;;5.03;0.97;;;;;;;;;;4345648;33;20381;-75